Time;durP1;ratioP1;P1;durP2;ratioP2;P2;SDS_P1;SDS_P2;PMS_P1;PMS_P2;Temp;Humidity;BMP_temperature;BMP_pressure;BME280_temperature;BME280_humidity;BME280_pressure;Samples;Min_cycle;Max_cycle;Signal;HPM_P1;HPM_P2
2022/12/05 00:00:17;;;;;;;6.15;2.72;;;3.70;90.00;;;;;;5092691;28;20048;-73
2022/12/05 00:02:43;;;;;;;5.18;2.47;;;3.70;90.00;;;;;;5092872;28;20553;-73
2022/12/05 00:05:10;;;;;;;5.85;2.70;;;3.70;90.00;;;;;;5092249;28;20028;-73
2022/12/05 00:07:36;;;;;;;4.90;2.30;;;3.70;90.00;;;;;;5092679;28;20036;-73
2022/12/05 00:10:03;;;;;;;5.43;2.47;;;3.70;90.00;;;;;;5092116;28;20043;-73
2022/12/05 00:12:29;;;;;;;4.97;2.67;;;3.70;90.00;;;;;;5073523;28;20036;-73
2022/12/05 00:14:54;;;;;;;5.72;2.67;;;3.70;90.00;;;;;;5092196;28;20089;-74
2022/12/05 00:17:20;;;;;;;6.05;3.08;;;3.70;90.00;;;;;;5092169;28;20044;-73
2022/12/05 00:19:46;;;;;;;5.53;2.53;;;3.70;90.00;;;;;;5073992;28;20448;-73
2022/12/05 00:22:11;;;;;;;5.20;2.47;;;3.70;90.10;;;;;;5092121;28;20047;-73
2022/12/05 00:24:38;;;;;;;4.65;2.53;;;3.70;90.10;;;;;;5092474;28;20105;-73
2022/12/05 00:27:03;;;;;;;4.78;2.10;;;3.70;90.40;;;;;;5092222;28;20093;-73
2022/12/05 00:29:29;;;;;;;5.18;2.50;;;3.70;90.10;;;;;;5091772;28;20048;-74
2022/12/05 00:31:55;;;;;;;4.82;2.30;;;3.70;90.10;;;;;;5073765;28;20050;-74
2022/12/05 00:34:20;;;;;;;4.93;2.33;;;3.70;90.20;;;;;;5056955;28;20486;-73
2022/12/05 00:36:46;;;;;;;4.60;2.20;;;3.60;90.10;;;;;;5091635;28;20119;-73
2022/12/05 00:39:14;;;;;;;4.78;2.22;;;3.70;90.20;;;;;;5091745;28;20040;-74
2022/12/05 00:41:40;;;;;;;5.15;2.33;;;3.70;90.20;;;;;;5092253;28;20144;-73
2022/12/05 00:44:06;;;;;;;5.63;2.65;;;3.70;90.20;;;;;;5091787;28;20036;-74
2022/12/05 00:46:33;;;;;;;5.68;2.63;;;3.70;90.20;;;;;;5091630;28;20486;-74
2022/12/05 00:49:01;;;;;;;5.47;2.67;;;3.70;90.20;;;;;;5091519;28;20440;-73
2022/12/05 00:51:31;;;;;;;5.95;2.72;;;3.70;90.30;;;;;;5091680;28;20040;-73
2022/12/05 00:53:59;;;;;;;4.35;2.15;;;3.70;90.30;;;;;;5073469;28;20044;-73
2022/12/05 00:56:26;;;;;;;5.53;2.58;;;3.70;90.20;;;;;;5092011;28;20119;-73
2022/12/05 00:58:53;;;;;;;4.35;2.33;;;3.60;90.20;;;;;;5090133;28;20112;-73
2022/12/05 01:01:27;;;;;;;5.55;2.78;;;3.70;90.30;;;;;;5073678;28;20043;-73
2022/12/05 01:03:55;;;;;;;6.05;2.60;;;3.60;90.30;;;;;;5089687;28;20485;-73
2022/12/05 01:06:22;;;;;;;6.30;2.80;;;3.60;90.30;;;;;;5089342;28;20056;-73
2022/12/05 01:08:49;;;;;;;6.15;2.80;;;3.70;90.30;;;;;;5091783;28;20044;-73
2022/12/05 01:11:17;;;;;;;5.18;2.50;;;3.60;90.30;;;;;;5073135;28;20040;-73
2022/12/05 01:13:43;;;;;;;5.18;2.40;;;3.80;90.40;;;;;;5091110;28;20047;-73
2022/12/05 01:16:15;;;;;;;6.63;2.72;;;3.70;90.30;;;;;;5091283;28;20036;-73
2022/12/05 01:18:41;;;;;;;5.40;2.67;;;3.70;90.40;;;;;;5071700;28;20047;-73
2022/12/05 01:21:07;;;;;;;5.47;2.60;;;3.70;90.40;;;;;;5091812;28;20044;-73
2022/12/05 01:23:33;;;;;;;5.55;2.58;;;3.70;90.40;;;;;;5074245;28;20508;-73
2022/12/05 01:25:59;;;;;;;6.75;3.10;;;3.70;90.40;;;;;;5095247;28;20039;-73
2022/12/05 01:28:24;;;;;;;6.10;2.97;;;3.70;90.40;;;;;;5076603;28;20048;-73
2022/12/05 01:30:50;;;;;;;5.80;2.90;;;3.70;90.40;;;;;;5094496;28;20039;-73
2022/12/05 01:33:16;;;;;;;6.45;2.88;;;3.70;90.40;;;;;;5094553;28;20090;-74
2022/12/05 01:35:42;;;;;;;6.47;2.72;;;3.70;90.40;;;;;;5095042;28;20069;-73
2022/12/05 01:38:11;;;;;;;7.80;3.80;;;3.60;90.40;;;;;;5094977;28;20089;-74
2022/12/05 01:40:37;;;;;;;8.25;3.83;;;3.70;90.40;;;;;;5094738;28;20508;-73
2022/12/05 01:43:03;;;;;;;6.70;3.35;;;3.70;90.40;;;;;;5094762;28;20051;-73
2022/12/05 01:45:36;;;;;;;8.05;3.22;;;3.80;90.40;;;;;;5076822;28;20040;-73
2022/12/05 01:48:06;;;;;;;8.13;3.85;;;3.70;90.40;;;;;;5093453;28;20543;-73
2022/12/05 01:50:33;;;;;;;5.30;2.72;;;3.80;90.40;;;;;;5077139;28;20044;-73
2022/12/05 01:52:59;;;;;;;6.63;3.70;;;3.80;90.40;;;;;;5076212;28;20036;-74
2022/12/05 01:55:25;;;;;;;5.88;2.70;;;3.80;90.40;;;;;;5094340;28;20441;-73
2022/12/05 01:57:51;;;;;;;5.40;2.80;;;3.80;90.40;;;;;;5094431;28;20071;-74
2022/12/05 02:00:19;;;;;;;6.88;3.40;;;3.80;90.40;;;;;;5094286;28;20047;-74
2022/12/05 02:02:51;;;;;;;6.78;3.08;;;3.80;90.40;;;;;;5094579;28;20040;-73
2022/12/05 02:05:21;;;;;;;6.32;3.20;;;3.90;90.50;;;;;;5093131;28;20040;-73
2022/12/05 02:07:47;;;;;;;6.28;3.17;;;3.80;90.40;;;;;;5094294;28;20040;-73
2022/12/05 02:10:13;;;;;;;7.05;3.08;;;3.80;90.40;;;;;;5094597;28;20040;-73
2022/12/05 02:12:40;;;;;;;6.47;2.95;;;3.90;90.50;;;;;;5075989;28;20497;-73
2022/12/05 02:15:20;;;;;;;5.10;2.42;;;3.80;90.50;;;;;;5075865;28;20078;-74
2022/12/05 02:18:04;;;;;;;5.82;2.88;;;3.80;90.50;;;;;;5093058;28;20036;-74
2022/12/05 02:20:54;;;;;;;5.78;2.75;;;3.80;90.50;;;;;;5092425;28;20043;-73
2022/12/05 02:23:56;;;;;;;6.40;3.35;;;3.80;90.50;;;;;;5078395;28;20490;-73
2022/12/05 02:26:48;;;;;;;6.60;2.85;;;3.80;90.40;;;;;;5078830;28;20036;-74
2022/12/05 02:29:49;;;;;;;6.43;3.17;;;3.80;90.50;;;;;;5091522;28;20032;-74
2022/12/05 02:32:33;;;;;;;5.63;2.78;;;3.80;90.50;;;;;;5091647;28;20035;-73
2022/12/05 02:35:07;;;;;;;6.05;2.88;;;3.80;90.40;;;;;;5093394;28;20052;-73
2022/12/05 02:37:51;;;;;;;6.57;2.78;;;3.90;90.50;;;;;;5091900;28;20430;-73
2022/12/05 02:40:27;;;;;;;6.22;2.58;;;3.80;90.50;;;;;;5092023;28;20123;-73
2022/12/05 02:42:59;;;;;;;5.20;2.55;;;3.80;90.50;;;;;;5057677;28;20039;-73
2022/12/05 02:45:29;;;;;;;5.65;2.63;;;3.90;90.50;;;;;;5093424;28;20044;-73
2022/12/05 02:47:57;;;;;;;6.10;2.70;;;3.80;90.50;;;;;;5093459;28;20032;-73
2022/12/05 02:50:29;;;;;;;6.22;2.83;;;3.90;90.50;;;;;;5075505;28;20468;-73
2022/12/05 02:52:59;;;;;;;6.15;3.22;;;3.90;90.80;;;;;;5094001;28;20036;-73
2022/12/05 02:55:27;;;;;;;7.10;2.92;;;3.90;90.60;;;;;;5093801;28;20032;-74
2022/12/05 02:57:56;;;;;;;6.75;3.20;;;3.90;90.60;;;;;;5093670;28;20485;-72
2022/12/05 03:00:22;;;;;;;5.63;2.65;;;3.90;90.60;;;;;;5075561;28;20044;-71
2022/12/05 03:02:53;;;;;;;6.03;2.95;;;4.00;90.60;;;;;;5093241;28;20043;-71
2022/12/05 03:05:41;;;;;;;5.00;2.30;;;3.90;90.60;;;;;;5073913;28;20350;-71
2022/12/05 03:08:12;;;;;;;5.90;2.72;;;4.00;90.60;;;;;;5091674;28;20107;-71
2022/12/05 03:10:41;;;;;;;6.03;3.00;;;4.00;90.60;;;;;;5092087;28;20501;-71
2022/12/05 03:13:14;;;;;;;4.32;2.22;;;4.00;90.60;;;;;;5075320;28;20040;-71
2022/12/05 03:15:46;;;;;;;5.03;2.45;;;3.90;90.60;;;;;;5092072;28;20036;-71
2022/12/05 03:18:20;;;;;;;4.85;2.00;;;4.00;90.70;;;;;;5074814;28;20035;-71
2022/12/05 03:20:52;;;;;;;5.43;2.67;;;4.00;90.70;;;;;;5092725;28;20071;-71
2022/12/05 03:23:28;;;;;;;5.95;2.72;;;4.00;90.70;;;;;;5074581;28;20184;-72
2022/12/05 03:26:19;;;;;;;5.97;2.70;;;4.10;90.70;;;;;;5093133;28;20040;-73
2022/12/05 03:29:13;;;;;;;4.40;2.20;;;4.10;90.70;;;;;;5078007;28;20051;-72
2022/12/05 03:31:49;;;;;;;4.57;2.30;;;4.10;90.80;;;;;;5092843;28;20044;-71
2022/12/05 03:34:22;;;;;;;5.15;2.75;;;4.10;90.70;;;;;;5075353;28;20531;-71
2022/12/05 03:36:51;;;;;;;3.53;2.08;;;4.00;90.70;;;;;;5092831;28;20047;-72
2022/12/05 03:39:22;;;;;;;4.32;2.17;;;4.00;90.70;;;;;;5092703;28;20490;-72
2022/12/05 03:41:55;;;;;;;;;;;4.10;90.80;;;;;;5093401;28;20042;-72
2022/12/05 03:44:30;;;;;;;4.22;2.10;;;4.10;90.80;;;;;;5092379;28;19935;-72
2022/12/05 03:47:05;;;;;;;4.43;2.13;;;4.10;90.80;;;;;;5073340;28;20051;-71
2022/12/05 03:49:39;;;;;;;3.92;1.90;;;4.10;90.80;;;;;;5092498;28;20044;-72
2022/12/05 03:52:11;;;;;;;4.50;1.92;;;4.10;90.80;;;;;;5075208;28;20044;-72
2022/12/05 03:54:45;;;;;;;3.85;1.80;;;4.10;90.80;;;;;;5074321;28;20105;-72
2022/12/05 03:57:19;;;;;;;2.83;1.73;;;4.10;90.80;;;;;;5057495;28;20036;-71
2022/12/05 04:00:05;;;;;;;4.10;2.10;;;4.10;90.80;;;;;;5092194;28;20044;-72
2022/12/05 04:02:45;;;;;;;4.55;1.90;;;4.10;90.90;;;;;;5076407;28;20048;-72
2022/12/05 04:05:20;;;;;;;5.20;2.20;;;4.10;90.90;;;;;;5074083;28;20040;-72
2022/12/05 04:07:50;;;;;;;5.28;1.80;;;4.10;90.90;;;;;;5092120;28;20068;-71
2022/12/05 04:10:22;;;;;;;3.70;1.65;;;4.10;90.90;;;;;;5074726;28;20127;-71
2022/12/05 04:12:51;;;;;;;3.53;1.75;;;4.10;90.90;;;;;;5092544;28;20141;-72
2022/12/05 04:15:22;;;;;;;3.42;1.73;;;4.10;90.90;;;;;;5091955;28;20032;-71
2022/12/05 04:17:56;;;;;;;4.17;1.87;;;4.10;90.90;;;;;;5091919;28;20070;-72
2022/12/05 04:23:12;;;;;;;4.90;2.20;;;4.20;91.00;;;;;;5091970;28;20093;-72
2022/12/05 04:25:51;;;;;;;4.07;1.83;;;4.20;91.00;;;;;;5092370;28;20473;-72
2022/12/05 04:28:35;;;;;;;3.80;1.85;;;4.30;91.00;;;;;;5091889;28;20135;-71
2022/12/05 04:31:09;;;;;;;3.85;1.90;;;4.20;91.00;;;;;;5090789;28;20048;-72
2022/12/05 04:33:43;;;;;;;4.47;1.92;;;4.30;91.00;;;;;;5091782;28;20028;-72
2022/12/05 04:36:26;;;;;;;3.75;1.70;;;4.30;91.10;;;;;;5091881;28;20040;-72
2022/12/05 04:39:01;;;;;;;4.88;2.45;;;4.20;91.00;;;;;;5091705;28;20127;-72
2022/12/05 04:41:33;;;;;;;4.80;2.10;;;4.20;91.00;;;;;;5073689;28;20081;-72
2022/12/05 04:44:04;;;;;;;2.65;1.75;;;4.20;91.00;;;;;;5073517;28;20370;-72
2022/12/05 04:46:30;;;;;;;4.75;2.10;;;4.20;91.00;;;;;;5091757;28;20507;-72
2022/12/05 04:49:00;;;;;;;4.65;2.20;;;4.20;91.00;;;;;;5091639;28;20074;-72
2022/12/05 04:51:31;;;;;;;3.00;1.67;;;4.20;91.10;;;;;;5091453;28;20045;-71
2022/12/05 04:54:02;;;;;;;3.80;1.60;;;4.20;91.10;;;;;;5091801;28;20495;-72
2022/12/05 04:56:32;;;;;;;4.00;1.90;;;4.20;91.10;;;;;;5056665;28;20149;-72
2022/12/05 04:58:58;;;;;;;4.78;2.10;;;4.20;91.10;;;;;;5093503;28;20040;-72
2022/12/05 05:01:44;;;;;;;3.70;1.88;;;4.20;91.10;;;;;;5095293;28;20044;-72
2022/12/05 05:04:19;;;;;;;4.55;2.03;;;4.30;91.10;;;;;;5095175;28;20055;-72
2022/12/05 05:06:45;;;;;;;3.42;1.80;;;4.20;91.10;;;;;;5077066;28;20110;-72
2022/12/05 05:09:11;;;;;;;5.05;2.20;;;4.30;91.10;;;;;;5095201;28;20044;-72
2022/12/05 05:11:37;;;;;;;4.38;2.17;;;4.30;91.10;;;;;;5095636;28;20040;-72
2022/12/05 05:14:03;;;;;;;5.38;2.38;;;4.30;91.10;;;;;;5095290;28;20107;-72
2022/12/05 05:16:32;;;;;;;4.30;2.00;;;4.30;91.10;;;;;;5095126;28;20040;-72
2022/12/05 05:18:58;;;;;;;5.28;2.33;;;4.30;91.10;;;;;;5094990;28;20040;-72
2022/12/05 05:21:28;;;;;;;3.88;1.95;;;4.30;91.10;;;;;;5095110;28;20074;-72
2022/12/05 05:23:54;;;;;;;4.32;2.15;;;4.30;91.20;;;;;;5076940;28;20036;-74
2022/12/05 05:26:20;;;;;;;4.95;2.20;;;4.30;91.20;;;;;;5077086;28;20039;-72
2022/12/05 05:28:46;;;;;;;3.55;1.80;;;4.30;91.10;;;;;;5076710;28;20573;-72
2022/12/05 05:31:13;;;;;;;4.07;2.05;;;4.30;91.20;;;;;;5094665;28;20084;-73
2022/12/05 05:33:39;;;;;;;3.78;1.80;;;4.30;91.20;;;;;;5077276;28;20052;-74
2022/12/05 05:36:09;;;;;;;3.67;1.92;;;4.30;91.20;;;;;;5094918;28;20093;-72
2022/12/05 05:38:41;;;;;;;3.63;1.80;;;4.30;91.20;;;;;;5095074;28;20047;-72
2022/12/05 05:41:13;;;;;;;2.88;1.70;;;4.40;91.20;;;;;;5094896;28;20398;-72
2022/12/05 05:43:39;;;;;;;;;;;4.30;91.20;;;;;;5095265;28;20052;-72
2022/12/05 05:46:04;;;;;;;3.90;1.80;;;4.40;91.20;;;;;;5094635;28;20315;-71
2022/12/05 05:48:30;;;;;;;5.03;2.22;;;4.40;91.20;;;;;;5094900;28;20096;-72
2022/12/05 05:50:58;;;;;;;4.15;1.88;;;4.40;91.20;;;;;;5094971;28;20040;-72
2022/12/05 05:53:24;;;;;;;4.32;1.80;;;4.40;91.20;;;;;;5077222;28;20118;-72
2022/12/05 05:55:50;;;;;;;4.10;1.98;;;4.40;91.20;;;;;;5094397;28;20072;-72
2022/12/05 05:58:15;;;;;;;4.90;1.98;;;4.40;91.20;;;;;;5094881;28;20040;-72
2022/12/05 06:00:41;;;;;;;4.82;1.88;;;4.40;91.20;;;;;;5094321;28;20040;-72
2022/12/05 06:03:07;;;;;;;3.38;1.67;;;4.40;91.20;;;;;;5076458;28;20127;-72
2022/12/05 06:05:32;;;;;;;3.03;1.65;;;4.40;91.20;;;;;;5094472;28;20043;-72
2022/12/05 06:07:58;;;;;;;3.30;1.58;;;4.40;91.20;;;;;;5094795;28;20040;-72
2022/12/05 06:10:24;;;;;;;3.72;1.80;;;4.50;91.20;;;;;;5093327;28;20394;-72
2022/12/05 06:12:49;;;;;;;3.80;1.90;;;4.40;91.20;;;;;;5094286;28;20044;-72
2022/12/05 06:15:15;;;;;;;3.47;1.60;;;4.40;91.20;;;;;;5094843;28;20040;-73
2022/12/05 06:17:40;;;;;;;3.40;1.88;;;4.40;91.20;;;;;;5094384;28;20040;-72
2022/12/05 06:20:07;;;;;;;4.35;2.08;;;4.50;91.30;;;;;;5094875;28;20127;-73
2022/12/05 06:22:33;;;;;;;3.15;1.75;;;4.50;91.30;;;;;;5076013;28;20056;-73
2022/12/05 06:24:58;;;;;;;2.70;1.60;;;4.60;91.30;;;;;;5094484;28;20097;-73
2022/12/05 06:27:24;;;;;;;3.45;1.70;;;4.50;91.30;;;;;;5093995;28;20044;-72
2022/12/05 06:29:50;;;;;;;3.97;1.90;;;4.50;91.30;;;;;;5094020;28;20075;-74
2022/12/05 06:32:16;;;;;;;3.53;1.85;;;4.50;91.30;;;;;;5094071;28;20567;-72
2022/12/05 06:34:41;;;;;;;3.65;1.85;;;4.50;91.30;;;;;;5094020;28;20139;-73
2022/12/05 06:37:07;;;;;;;3.13;1.60;;;4.50;91.30;;;;;;5094357;28;20036;-73
2022/12/05 06:39:33;;;;;;;4.88;2.05;;;4.50;91.30;;;;;;5094402;28;20381;-73
2022/12/05 06:41:58;;;;;;;4.95;2.30;;;4.50;91.30;;;;;;5093932;28;20440;-73
2022/12/05 06:44:25;;;;;;;4.57;2.03;;;4.50;91.30;;;;;;5094042;28;20048;-73
2022/12/05 06:46:52;;;;;;;4.95;2.40;;;4.50;91.30;;;;;;5093721;28;20431;-73
2022/12/05 06:49:18;;;;;;;3.17;1.70;;;4.50;91.30;;;;;;5075564;28;20123;-73
2022/12/05 06:51:44;;;;;;;3.88;2.00;;;4.60;91.30;;;;;;5093787;28;20462;-74
2022/12/05 06:54:12;;;;;;;4.63;2.42;;;4.50;91.30;;;;;;5075775;28;20048;-74
2022/12/05 06:56:37;;;;;;;3.88;2.10;;;4.50;91.40;;;;;;5093432;28;20393;-74
2022/12/05 06:59:03;;;;;;;3.80;1.92;;;4.50;91.40;;;;;;5093789;28;20039;-74
2022/12/05 07:01:45;;;;;;;3.60;1.83;;;4.60;91.40;;;;;;5094006;28;20036;-74
2022/12/05 07:04:14;;;;;;;3.22;1.65;;;4.60;91.40;;;;;;5093331;28;20998;-72
2022/12/05 07:06:42;;;;;;;3.00;1.77;;;4.50;91.40;;;;;;5093673;28;20493;-72
2022/12/05 07:09:08;;;;;;;3.08;1.60;;;4.60;91.40;;;;;;5093607;28;20040;-74
2022/12/05 07:11:34;;;;;;;4.15;2.13;;;4.60;91.40;;;;;;5093517;28;20379;-75
2022/12/05 07:14:01;;;;;;;3.53;1.88;;;4.60;91.40;;;;;;5093704;28;20040;-72
2022/12/05 07:16:26;;;;;;;4.28;2.17;;;4.60;91.40;;;;;;5093260;28;20047;-74
2022/12/05 07:18:52;;;;;;;2.92;1.70;;;4.60;91.40;;;;;;5093501;28;20028;-72
2022/12/05 07:21:19;;;;;;;3.90;1.95;;;4.60;91.40;;;;;;5093261;28;20402;-74
2022/12/05 07:23:46;;;;;;;4.80;1.98;;;4.60;91.40;;;;;;5092954;28;20040;-73
2022/12/05 07:26:14;;;;;;;2.80;1.58;;;4.60;91.40;;;;;;5092885;28;20128;-73
2022/12/05 07:28:40;;;;;;;4.10;2.08;;;4.60;91.40;;;;;;5093026;28;20054;-73
2022/12/05 07:31:10;;;;;;;3.70;1.80;;;4.70;91.40;;;;;;5074891;28;20127;-73
2022/12/05 07:33:37;;;;;;;4.35;1.95;;;4.60;91.40;;;;;;5093317;28;20603;-74
2022/12/05 07:36:07;;;;;;;4.40;1.98;;;4.60;91.40;;;;;;5093235;28;20040;-73
2022/12/05 07:38:33;;;;;;;4.50;2.30;;;4.60;91.40;;;;;;5092920;28;20035;-73
2022/12/05 07:41:02;;;;;;;4.18;2.05;;;4.60;91.40;;;;;;5092859;28;20043;-74
2022/12/05 07:43:29;;;;;;;4.38;2.28;;;4.60;91.40;;;;;;5058484;28;20058;-73
2022/12/05 07:45:55;;;;;;;3.28;1.70;;;4.60;91.50;;;;;;5092886;28;20075;-75
2022/12/05 07:48:20;;;;;;;2.92;1.58;;;4.60;91.40;;;;;;5074624;28;20071;-75
2022/12/05 07:50:46;;;;;;;3.78;2.05;;;4.60;91.50;;;;;;5092951;28;20052;-73
2022/12/05 07:53:12;;;;;;;4.75;2.08;;;4.60;91.50;;;;;;5092645;28;20123;-76
2022/12/05 07:55:38;;;;;;;4.10;2.08;;;4.60;91.50;;;;;;5092767;28;20070;-75
2022/12/05 07:58:04;;;;;;;4.45;2.30;;;4.60;91.50;;;;;;5093238;28;20028;-73
2022/12/05 08:00:29;;;;;;;3.60;1.80;;;4.60;91.50;;;;;;5092947;28;20517;-73
2022/12/05 08:02:55;;;;;;;3.08;1.70;;;4.60;91.50;;;;;;5075054;28;20117;-75
2022/12/05 08:05:21;;;;;;;3.40;2.03;;;4.60;91.50;;;;;;5092954;28;20397;-73
2022/12/05 08:07:46;;;;;;;3.03;1.80;;;4.60;91.50;;;;;;5074893;28;20482;-74
2022/12/05 08:10:12;;;;;;;3.70;1.73;;;4.60;91.50;;;;;;5092461;28;20119;-73
2022/12/05 08:12:38;;;;;;;2.83;1.60;;;4.60;91.50;;;;;;5074209;28;20451;-74
2022/12/05 08:15:05;;;;;;;2.90;1.50;;;4.60;91.50;;;;;;5092851;28;20051;-74
2022/12/05 08:17:32;;;;;;;3.13;1.90;;;4.70;91.60;;;;;;5093062;28;20047;-74
2022/12/05 08:24:50;;;;;;;3.40;1.70;;;4.60;91.60;;;;;;4982390;28;20098;-78
2022/12/05 08:27:53;;;;;;;3.00;1.70;;;4.70;91.60;;;;;;4904812;29;20119;-76
2022/12/05 08:31:45;;;;;;;3.60;1.50;;;4.70;91.60;;;;;;4931703;29;20056;-78
2022/12/05 08:34:29;;;;;;;3.15;1.85;;;4.70;91.50;;;;;;4888444;29;20045;-74
2022/12/05 08:37:28;;;;;;;2.80;1.45;;;4.70;91.50;;;;;;4838557;29;20136;-74
2022/12/05 08:40:54;;;;;;;2.55;1.48;;;4.70;91.50;;;;;;4816846;29;20115;-74
2022/12/05 08:43:57;;;;;;;3.33;1.75;;;4.70;91.60;;;;;;4811341;29;20062;-76
2022/12/05 08:46:42;;;;;;;2.72;1.38;;;4.70;91.60;;;;;;4820611;29;20077;-73
2022/12/05 08:49:52;;;;;;;2.97;1.60;;;4.70;91.50;;;;;;4823632;29;20049;-74
2022/12/05 08:52:17;;;;;;;4.00;1.60;;;4.70;91.60;;;;;;4838857;29;20145;-74
2022/12/05 08:54:44;;;;;;;2.85;1.55;;;4.70;91.60;;;;;;4873125;29;20128;-76
2022/12/05 08:57:19;;;;;;;2.85;1.60;;;4.70;91.60;;;;;;4919291;28;20049;-75
2022/12/05 08:59:51;;;;;;;2.55;1.50;;;4.70;91.60;;;;;;4977102;28;20043;-76
2022/12/05 09:02:30;;;;;;;3.03;1.50;;;4.90;91.70;;;;;;5035150;28;20048;-76
2022/12/05 09:05:23;;;;;;;2.40;1.50;;;4.80;91.60;;;;;;5073568;28;20046;-80
2022/12/05 09:07:58;;;;;;;1.85;0.98;;;4.80;91.60;;;;;;5087106;28;20055;-80
2022/12/05 09:10:50;;;;;;;2.70;1.35;;;4.70;91.60;;;;;;5070114;28;20056;-78
2022/12/05 09:13:18;;;;;;;2.50;1.55;;;4.80;91.70;;;;;;5008280;28;20080;-79
2022/12/05 09:15:48;;;;;;;2.05;1.35;;;4.80;91.70;;;;;;5001740;28;20551;-78
2022/12/05 09:18:14;;;;;;;2.30;1.30;;;4.70;91.60;;;;;;5011041;28;20031;-77
2022/12/05 09:20:41;;;;;;;3.47;1.70;;;4.80;91.70;;;;;;5009278;28;20106;-78
2022/12/05 09:23:17;;;;;;;2.88;1.75;;;4.80;91.70;;;;;;5005930;28;20050;-80
2022/12/05 09:26:01;;;;;;;2.15;1.48;;;4.80;91.70;;;;;;5007781;28;20408;-78
2022/12/05 09:28:35;;;;;;;2.15;1.25;;;4.80;91.70;;;;;;5009524;28;20047;-77
2022/12/05 09:31:05;;;;;;;3.25;1.45;;;4.80;91.70;;;;;;5005685;28;20053;-77
2022/12/05 09:33:36;;;;;;;2.83;1.52;;;4.90;91.70;;;;;;5005200;28;20038;-76
2022/12/05 09:36:06;;;;;;;;;;;4.80;91.70;;;;;;4985575;28;20130;-77
2022/12/05 09:38:32;;;;;;;1.70;1.00;;;4.90;91.70;;;;;;5011016;28;20438;-76
2022/12/05 09:42:03;;;;;;;2.80;1.42;;;4.80;91.70;;;;;;4976740;28;20485;-77
2022/12/05 09:44:42;;;;;;;2.00;1.10;;;4.90;91.70;;;;;;5038391;28;20033;-79
2022/12/05 09:47:32;;;;;;;3.03;1.50;;;4.80;91.70;;;;;;5057106;28;20053;-76
2022/12/05 09:50:20;;;;;;;1.60;0.90;;;4.90;91.70;;;;;;5053293;28;20064;-76
2022/12/05 09:53:06;;;;;;;2.25;1.23;;;4.90;91.70;;;;;;5061338;28;20049;-78
2022/12/05 09:55:51;;;;;;;2.78;1.50;;;4.90;91.70;;;;;;5061461;28;20045;-78
2022/12/05 09:58:41;;;;;;;2.85;1.40;;;4.90;91.70;;;;;;5076030;28;20573;-77
2022/12/05 10:01:33;;;;;;;2.30;1.38;;;4.90;91.70;;;;;;5069883;28;20067;-77
2022/12/05 10:04:33;;;;;;;3.10;1.50;;;4.90;91.70;;;;;;5060888;28;20043;-78
2022/12/05 10:07:22;;;;;;;2.22;1.20;;;4.90;91.70;;;;;;5087334;28;20043;-77
2022/12/05 10:10:00;;;;;;;3.22;1.50;;;4.90;91.70;;;;;;5080781;28;20107;-77
2022/12/05 10:12:48;;;;;;;1.90;1.15;;;5.00;91.70;;;;;;5103358;28;20036;-76
2022/12/05 10:15:25;;;;;;;2.67;1.45;;;5.00;91.80;;;;;;5062557;28;20393;-76
2022/12/05 10:18:14;;;;;;;2.83;1.20;;;5.00;91.70;;;;;;5098453;28;20040;-77
2022/12/05 10:20:56;;;;;;;2.55;1.60;;;4.90;91.80;;;;;;5083930;28;20040;-78
2022/12/05 10:23:37;;;;;;;2.30;1.40;;;5.00;91.80;;;;;;5112440;28;20417;-78
2022/12/05 10:26:08;;;;;;;2.50;1.30;;;5.10;91.80;;;;;;5110249;28;20107;-77
2022/12/05 10:28:46;;;;;;;2.22;1.17;;;5.10;91.80;;;;;;5097280;28;20068;-77
2022/12/05 10:31:15;;;;;;;2.40;1.23;;;5.00;91.70;;;;;;5110278;28;20505;-77
2022/12/05 10:33:46;;;;;;;2.88;1.25;;;5.20;91.80;;;;;;5095923;28;20079;-76
2022/12/05 10:36:13;;;;;;;3.33;1.70;;;5.10;91.80;;;;;;5095231;28;20043;-77
2022/12/05 10:38:39;;;;;;;3.28;1.75;;;5.10;91.80;;;;;;5098157;28;20085;-77
2022/12/05 10:41:09;;;;;;;2.20;1.25;;;5.10;91.80;;;;;;5097099;28;20044;-76
2022/12/05 10:43:36;;;;;;;3.20;1.58;;;5.10;91.80;;;;;;5066489;28;20474;-77
2022/12/05 10:46:03;;;;;;;1.73;1.20;;;5.10;91.80;;;;;;5081742;28;20397;-77
2022/12/05 10:48:33;;;;;;;2.20;1.20;;;5.10;91.80;;;;;;5079264;28;20459;-78
2022/12/05 10:50:59;;;;;;;1.98;1.10;;;5.20;91.80;;;;;;5080403;28;20055;-78
2022/12/05 10:53:55;;;;;;;1.48;1.00;;;5.20;91.80;;;;;;5062342;28;20070;-78
2022/12/05 10:56:52;;;;;;;1.92;1.10;;;5.20;91.80;;;;;;5080287;28;20180;-77
2022/12/05 10:59:56;;;;;;;1.38;1.08;;;5.20;91.80;;;;;;5070583;28;20036;-79
2022/12/05 11:02:27;;;;;;;1.98;1.20;;;5.20;91.80;;;;;;5024540;28;20484;-78
2022/12/05 11:04:58;;;;;;;2.58;1.50;;;5.20;91.80;;;;;;4999128;28;20044;-79
2022/12/05 11:07:48;;;;;;;1.83;1.10;;;5.30;91.80;;;;;;4931566;29;20238;-77
2022/12/05 11:10:29;;;;;;;2.70;1.30;;;5.20;91.80;;;;;;4940691;29;20052;-79
2022/12/05 11:12:58;;;;;;;2.22;1.30;;;5.40;91.80;;;;;;4902145;29;20052;-78
2022/12/05 11:15:27;;;;;;;2.35;1.30;;;5.20;91.80;;;;;;4908485;29;20080;-77
2022/12/05 11:17:55;;;;;;;2.20;1.25;;;5.30;91.80;;;;;;4899119;29;20507;-77
2022/12/05 11:20:39;;;;;;;2.80;1.40;;;5.20;91.80;;;;;;4880861;29;20372;-77
2022/12/05 11:23:21;;;;;;;1.50;1.05;;;5.20;91.90;;;;;;4895876;29;20060;-77
2022/12/05 11:25:47;;;;;;;2.67;1.60;;;5.30;91.90;;;;;;4895964;29;20045;-77
2022/12/05 11:28:31;;;;;;;2.03;1.15;;;5.20;91.80;;;;;;4899309;29;20051;-77
2022/12/05 11:31:01;;;;;;;2.05;1.05;;;5.20;91.90;;;;;;4925447;28;20075;-77
2022/12/05 11:33:29;;;;;;;1.55;1.17;;;5.20;91.90;;;;;;4991754;28;20177;-77
2022/12/05 11:36:02;;;;;;;1.20;1.08;;;5.30;91.90;;;;;;5011128;28;20129;-77
2022/12/05 11:38:31;;;;;;;1.52;1.00;;;5.20;91.90;;;;;;5032543;28;20546;-77
2022/12/05 11:41:24;;;;;;;2.33;1.20;;;5.00;91.90;;;;;;5050927;28;20055;-77
2022/12/05 11:44:17;;;;;;;1.30;0.88;;;5.20;92.00;;;;;;5072298;28;20113;-77
2022/12/05 11:47:06;;;;;;;2.05;1.20;;;5.10;92.00;;;;;;5061748;28;20486;-77
2022/12/05 11:49:58;;;;;;;2.00;1.20;;;5.20;92.00;;;;;;5056944;28;20036;-77
2022/12/05 11:52:37;;;;;;;;;;;5.10;91.90;;;;;;5104319;28;20113;-78
2022/12/05 11:55:30;;;;;;;1.90;0.82;;;5.10;92.00;;;;;;5088859;28;19912;-78
2022/12/05 11:58:15;;;;;;;0.70;0.70;;;5.20;92.00;;;;;;5085489;28;20062;-78
2022/12/05 12:01:00;;;;;;;1.27;0.82;;;5.10;92.20;;;;;;5051553;28;20036;-78
2022/12/05 12:03:50;;;;;;;1.25;0.80;;;5.10;92.20;;;;;;5057032;28;20095;-79
2022/12/05 12:06:52;;;;;;;1.73;1.10;;;5.10;92.00;;;;;;5043947;28;20045;-80
2022/12/05 12:16:55;;;;;;;1.38;0.85;;;5.10;92.00;;;;;;4901947;29;20112;-80
2022/12/05 12:19:59;;;;;;;2.28;1.10;;;5.10;92.00;;;;;;4917058;29;20044;-79
2022/12/05 12:22:57;;;;;;;1.60;0.82;;;5.10;92.00;;;;;;4879697;29;20073;-79
2022/12/05 12:25:36;;;;;;;1.40;0.90;;;5.10;92.00;;;;;;4925157;29;20036;-79
2022/12/05 12:28:22;;;;;;;2.03;1.13;;;5.10;92.00;;;;;;4867855;29;20097;-78
2022/12/05 12:31:23;;;;;;;1.70;1.02;;;5.10;92.00;;;;;;4869291;29;20053;-77
2022/12/05 12:34:16;;;;;;;1.15;0.95;;;5.10;92.00;;;;;;4866130;29;20049;-78
2022/12/05 12:37:00;;;;;;;1.55;1.00;;;5.20;92.00;;;;;;4840949;29;20040;-78
2022/12/05 12:39:45;;;;;;;1.98;1.10;;;5.20;91.90;;;;;;4851463;29;20044;-78
2022/12/05 12:42:44;;;;;;;1.83;0.95;;;5.10;91.90;;;;;;4885430;29;20057;-79
2022/12/05 12:45:35;;;;;;;1.35;0.95;;;5.10;91.90;;;;;;4876389;29;20144;-80
2022/12/05 12:48:43;;;;;;;1.63;1.10;;;5.10;92.00;;;;;;4864441;29;20407;-80
2022/12/05 12:54:43;;;;;;;2.25;1.17;;;5.20;92.00;;;;;;4902697;29;20059;-79
2022/12/05 12:57:28;;;;;;;1.30;0.93;;;5.20;92.00;;;;;;4861324;29;20033;-78
2022/12/05 13:00:31;;;;;;;1.63;0.93;;;5.10;92.00;;;;;;4915964;29;20040;-79
2022/12/05 13:03:24;;;;;;;1.48;0.95;;;5.10;92.00;;;;;;4908067;28;20047;-78
2022/12/05 13:06:03;;;;;;;1.65;1.10;;;5.10;92.10;;;;;;4939921;29;20052;-80
2022/12/05 13:09:09;;;;;;;1.23;0.90;;;5.10;92.00;;;;;;4943945;29;20050;-79
2022/12/05 13:12:00;;;;;;;1.40;0.90;;;5.00;92.10;;;;;;4925128;29;20085;-79
2022/12/05 13:18:59;;;;;;;1.23;0.80;;;5.10;92.10;;;;;;4848011;29;20050;-80
2022/12/05 13:21:40;;;;;;;1.30;1.00;;;5.10;92.00;;;;;;4849734;29;20041;-80
2022/12/05 13:27:57;;;;;;;2.00;1.00;;;5.20;92.00;;;;;;4847162;29;20106;-77
2022/12/05 13:30:26;;;;;;;0.60;0.60;;;5.20;92.00;;;;;;4817611;29;20121;-77
2022/12/05 13:32:57;;;;;;;1.38;0.93;;;5.20;92.00;;;;;;4787692;29;20043;-77
2022/12/05 13:43:54;;;;;;;1.67;1.00;;;5.30;92.00;;;;;;4805198;29;20121;-78
2022/12/05 13:46:30;;;;;;;2.05;0.90;;;5.20;91.90;;;;;;4832736;29;20105;-77
2022/12/05 13:49:21;;;;;;;1.35;0.88;;;5.20;92.00;;;;;;4893895;29;20052;-82
2022/12/05 13:52:20;;;;;;;0.97;0.80;;;5.20;92.00;;;;;;4900603;29;20048;-81
2022/12/05 13:55:00;;;;;;;0.98;0.75;;;5.20;92.00;;;;;;4889896;29;20299;-78
2022/12/05 14:01:45;;;;;;;1.95;1.02;;;5.30;92.10;;;;;;4887045;29;20113;-81
2022/12/05 14:04:44;;;;;;;1.17;0.80;;;5.30;92.10;;;;;;4958669;28;20076;-80
2022/12/05 14:11:19;;;;;;;0.65;0.50;;;5.30;92.00;;;;;;4938537;29;20494;-77
2022/12/05 14:13:52;;;;;;;0.57;0.50;;;5.30;92.10;;;;;;4927861;29;20119;-77
2022/12/05 14:17:01;;;;;;;0.70;0.60;;;5.20;92.00;;;;;;4924804;29;20082;-76
2022/12/05 14:19:46;;;;;;;0.95;0.60;;;5.30;92.10;;;;;;4905492;29;20047;-76